Time;durP1;ratioP1;P1;durP2;ratioP2;P2;SDS_P1;SDS_P2;PMS_P1;PMS_P2;Temp;Humidity;BMP_temperature;BMP_pressure;BME280_temperature;BME280_humidity;BME280_pressure;Samples;Min_cycle;Max_cycle;Signal;HPM_P1;HPM_P2
2022/11/08 00:02:33;;;;;;;2.70;2.50;;;13.70;74.10;;;-142.21;100.00;112049.66;5032302;28;20488;-71
2022/11/08 00:16:02;;;;;;;2.50;2.17;;;13.60;74.60;;;-142.21;100.00;112049.66;5011595;28;20421;-70
2022/11/08 00:18:28;;;;;;;3.60;2.50;;;13.60;74.50;;;-142.21;100.00;112049.66;5028482;28;20533;-70
2022/11/08 00:20:56;;;;;;;3.20;2.60;;;13.60;74.90;;;-142.21;100.00;112049.66;5031749;28;20451;-71
2022/11/08 00:23:23;;;;;;;3.57;2.50;;;13.70;74.20;;;-142.21;100.00;112049.66;5032005;28;20444;-71
2022/11/08 00:25:53;;;;;;;4.73;2.03;;;13.60;74.10;;;-142.21;100.00;112049.66;5030656;28;20451;-71
2022/11/08 00:28:20;;;;;;;4.93;2.57;;;13.60;74.00;;;-142.21;100.00;112049.66;5017882;28;20430;-71
2022/11/08 00:30:47;;;;;;;3.47;2.50;;;13.60;73.90;;;-142.21;100.00;112049.66;5031611;28;20451;-71
2022/11/08 00:33:16;;;;;;;3.60;2.47;;;13.60;73.90;;;-142.21;100.00;112049.66;5031923;28;20437;-71
2022/11/08 00:35:43;;;;;;;3.90;2.90;;;13.60;73.80;;;-142.21;100.00;112049.66;5031950;28;20445;-71
2022/11/08 00:38:10;;;;;;;2.83;2.27;;;13.60;73.90;;;-142.21;100.00;112049.66;5029903;28;20449;-71
2022/11/08 00:40:37;;;;;;;5.07;2.60;;;13.50;73.50;;;-142.21;100.00;112049.66;5032133;28;20806;-71
2022/11/08 00:43:04;;;;;;;3.27;2.57;;;13.50;73.40;;;-142.21;100.00;112049.66;5031071;28;20448;-71
2022/11/08 00:45:31;;;;;;;4.30;2.33;;;13.50;73.50;;;-142.21;100.00;112049.66;5031770;28;20920;-71
2022/11/08 00:47:58;;;;;;;3.60;2.50;;;13.40;73.50;;;-142.21;100.00;112049.66;5015879;28;20465;-71
2022/11/08 00:50:27;;;;;;;3.90;2.63;;;13.40;74.20;;;-142.21;100.00;112049.66;5012657;28;20549;-70
2022/11/08 00:52:54;;;;;;;4.10;2.40;;;13.40;73.50;;;-142.21;100.00;112049.66;5011600;28;20449;-71
2022/11/08 00:55:21;;;;;;;3.80;2.40;;;13.30;73.60;;;-142.21;100.00;112049.66;5014586;28;20440;-71
2022/11/08 00:57:48;;;;;;;2.97;2.10;;;13.30;73.60;;;-142.21;100.00;112049.66;5027248;28;20445;-71
2022/11/08 01:00:16;;;;;;;5.20;1.90;;;13.30;73.80;;;-142.21;100.00;112049.66;5031228;28;20649;-71
2022/11/08 01:02:43;;;;;;;2.50;2.20;;;13.20;73.80;;;-142.21;100.00;112049.66;5031882;28;20453;-71
2022/11/08 01:05:11;;;;;;;4.10;2.20;;;13.20;73.90;;;-142.21;100.00;112049.66;5030477;28;20568;-71
2022/11/08 01:07:39;;;;;;;3.20;2.60;;;13.20;73.80;;;-142.21;100.00;112049.66;5019707;28;20520;-70
2022/11/08 01:10:08;;;;;;;3.97;2.53;;;13.20;73.80;;;-142.21;100.00;112049.66;5011397;28;21062;-71
2022/11/08 01:12:35;;;;;;;4.03;2.20;;;13.10;73.70;;;-142.21;100.00;112049.66;5011746;28;20489;-71
2022/11/08 01:15:04;;;;;;;3.43;2.80;;;13.10;73.80;;;-142.21;100.00;112049.66;5012989;28;21029;-71
2022/11/08 01:17:32;;;;;;;3.93;2.67;;;13.10;74.10;;;-142.21;100.00;112049.66;5028428;28;20477;-71
2022/11/08 01:19:59;;;;;;;5.33;2.50;;;13.00;74.00;;;-142.21;100.00;112049.66;5029356;28;20510;-70
2022/11/08 01:22:26;;;;;;;3.20;2.10;;;13.00;74.00;;;-142.21;100.00;112049.66;5014930;28;20537;-70
2022/11/08 01:24:54;;;;;;;3.57;2.30;;;12.90;74.10;;;-142.21;100.00;112049.66;5015917;28;20568;-71
2022/11/08 01:27:21;;;;;;;4.50;2.40;;;12.90;74.10;;;-142.21;100.00;112049.66;5021139;28;20442;-71
2022/11/08 01:29:49;;;;;;;4.70;2.37;;;12.90;74.00;;;-142.21;100.00;112049.66;5015174;28;20445;-71
2022/11/08 01:32:16;;;;;;;2.97;2.30;;;12.80;74.00;;;-142.21;100.00;112049.66;5015150;28;20450;-70
2022/11/08 01:34:43;;;;;;;3.47;2.13;;;12.80;74.10;;;-142.21;100.00;112049.66;5015250;28;20438;-71
2022/11/08 01:37:10;;;;;;;3.37;2.20;;;12.80;74.80;;;-142.21;100.00;112049.66;5015015;28;20445;-70
2022/11/08 01:39:37;;;;;;;3.53;2.30;;;12.80;74.20;;;-142.21;100.00;112049.66;5015619;28;20500;-71
2022/11/08 01:42:06;;;;;;;3.03;2.20;;;12.70;74.00;;;-142.21;100.00;112049.66;5015433;28;20504;-71
2022/11/08 01:44:33;;;;;;;4.40;2.47;;;12.70;74.10;;;-142.21;100.00;112049.66;5031550;28;20487;-71
2022/11/08 01:47:00;;;;;;;3.73;2.33;;;12.70;74.00;;;-142.21;100.00;112049.66;5034099;28;20445;-71
2022/11/08 01:49:46;;;;;;;3.70;2.47;;;12.70;74.00;;;-142.21;100.00;112049.66;5034473;28;20560;-71
2022/11/08 01:52:24;;;;;;;2.60;2.00;;;12.70;74.00;;;-142.21;100.00;112049.66;5029666;28;20459;-71
2022/11/08 01:55:04;;;;;;;3.20;2.27;;;12.60;74.10;;;-142.21;100.00;112049.66;5018962;28;20525;-71
2022/11/08 01:57:42;;;;;;;2.50;2.20;;;12.60;74.00;;;-142.21;100.00;112049.66;5014962;28;20785;-71
2022/11/08 02:00:12;;;;;;;3.33;2.40;;;12.60;74.20;;;-142.21;100.00;112049.66;5014910;28;20426;-71
2022/11/08 02:02:43;;;;;;;4.03;2.40;;;12.60;74.20;;;-142.21;100.00;112049.66;5032125;28;20552;-70
2022/11/08 02:05:25;;;;;;;3.00;2.70;;;12.50;74.10;;;-142.21;100.00;112049.66;5034145;28;20575;-71
2022/11/08 02:08:00;;;;;;;5.10;2.30;;;12.50;74.30;;;-142.21;100.00;112049.66;5034658;28;20418;-70
2022/11/08 02:10:34;;;;;;;3.10;2.30;;;12.50;74.30;;;-142.21;100.00;112049.66;5033438;28;20552;-70
2022/11/08 02:13:11;;;;;;;6.93;2.50;;;12.40;74.10;;;-142.21;100.00;112049.66;5034038;28;20436;-71
2022/11/08 02:15:38;;;;;;;2.50;2.30;;;12.40;74.20;;;-142.21;100.00;112049.66;5034673;28;20417;-71
2022/11/08 02:18:06;;;;;;;6.37;2.50;;;12.40;74.20;;;-142.21;100.00;112049.66;5020983;28;20448;-71
2022/11/08 02:20:34;;;;;;;2.97;2.03;;;12.30;74.10;;;-142.21;100.00;112049.66;5014844;28;20454;-71
2022/11/08 02:23:15;;;;;;;2.00;1.80;;;12.30;74.20;;;-142.21;100.00;112049.66;5014025;28;20446;-70
2022/11/08 02:26:02;;;;;;;5.53;2.10;;;12.30;74.20;;;-142.21;100.00;112049.66;5014926;28;20466;-70
2022/11/08 02:28:29;;;;;;;3.37;1.87;;;12.20;74.40;;;-142.21;100.00;112049.66;5034197;28;20429;-71
2022/11/08 02:30:56;;;;;;;2.10;1.83;;;12.20;74.70;;;-142.21;100.00;112049.66;5034128;28;20449;-70
2022/11/08 02:33:23;;;;;;;2.47;1.67;;;12.20;74.70;;;-142.21;100.00;112049.66;5028121;28;20450;-71
2022/11/08 02:35:56;;;;;;;2.70;1.80;;;12.10;74.60;;;-142.21;100.00;112049.66;5014499;28;20442;-70
2022/11/08 02:38:26;;;;;;;2.73;1.77;;;12.10;75.00;;;-142.21;100.00;112049.66;4980226;28;20454;-71
2022/11/08 02:40:56;;;;;;;2.70;1.60;;;12.10;75.40;;;-142.21;100.00;112049.66;5019085;28;20457;-71
2022/11/08 02:43:25;;;;;;;2.53;2.00;;;12.10;74.70;;;-142.21;100.00;112049.66;5028919;28;20434;-70
2022/11/08 02:45:52;;;;;;;2.40;1.87;;;12.10;74.60;;;-142.21;100.00;112049.66;5013763;28;20488;-71
2022/11/08 02:48:20;;;;;;;2.10;1.90;;;12.10;74.60;;;-142.21;100.00;112049.66;5013608;28;20464;-71
2022/11/08 02:50:47;;;;;;;2.00;1.80;;;12.00;74.50;;;-142.21;100.00;112049.66;5013857;28;20458;-70
2022/11/08 02:53:15;;;;;;;3.73;1.93;;;12.00;74.50;;;-142.21;100.00;112049.66;5013306;28;20814;-71
2022/11/08 02:55:42;;;;;;;2.63;2.10;;;12.00;74.40;;;-142.21;100.00;112049.66;5013435;28;20442;-71
2022/11/08 02:58:12;;;;;;;2.50;2.20;;;12.00;74.50;;;-142.21;100.00;112049.66;5014618;28;20477;-70
2022/11/08 03:00:39;;;;;;;3.00;2.23;;;12.10;74.60;;;-142.21;100.00;112049.66;5013920;28;20548;-71
2022/11/08 03:03:07;;;;;;;2.23;1.70;;;12.00;74.30;;;-142.21;100.00;112049.66;5013575;28;20446;-71
2022/11/08 03:05:34;;;;;;;2.30;1.80;;;12.00;74.40;;;-142.21;100.00;112049.66;5021087;28;20473;-70
2022/11/08 03:08:01;;;;;;;2.73;1.90;;;12.00;74.40;;;-142.21;100.00;112049.66;5032763;28;21118;-71
2022/11/08 03:10:31;;;;;;;2.80;1.80;;;12.00;74.30;;;-142.21;100.00;112049.66;5032796;28;20981;-71
2022/11/08 03:13:00;;;;;;;1.83;1.70;;;12.00;74.20;;;-142.21;100.00;112049.66;5033272;28;20441;-71
2022/11/08 03:15:29;;;;;;;1.70;1.60;;;12.00;74.10;;;-142.21;100.00;112049.66;5029813;28;20534;-71
2022/11/08 03:17:56;;;;;;;2.17;1.63;;;12.00;74.10;;;-142.21;100.00;112049.66;5021624;28;20446;-71
2022/11/08 03:20:24;;;;;;;3.67;1.60;;;11.90;73.90;;;-142.21;100.00;112049.66;5013175;28;20515;-71
2022/11/08 03:22:58;;;;;;;2.80;1.60;;;11.90;73.90;;;-142.21;100.00;112049.66;5013800;28;20466;-71
2022/11/08 03:25:26;;;;;;;1.83;1.73;;;11.90;73.80;;;-142.21;100.00;112049.66;5013028;28;20477;-71
2022/11/08 03:27:53;;;;;;;1.50;1.30;;;11.90;73.90;;;-142.21;100.00;112049.66;5031703;28;20449;-71
2022/11/08 03:30:21;;;;;;;3.27;1.70;;;11.80;73.80;;;-142.21;100.00;112049.66;4981738;28;21516;-71
2022/11/08 03:32:49;;;;;;;4.07;1.80;;;11.70;74.10;;;-142.21;100.00;112049.66;5018714;28;20460;-71
2022/11/08 03:35:17;;;;;;;2.07;1.60;;;11.70;74.20;;;-142.21;100.00;112049.66;5012892;28;20460;-71
2022/11/08 03:37:50;;;;;;;2.73;1.80;;;11.70;74.20;;;-142.21;100.00;112049.66;5012858;28;20445;-70
2022/11/08 03:40:18;;;;;;;1.63;1.43;;;11.70;74.20;;;-142.21;100.00;112049.66;5018919;28;20441;-71
2022/11/08 03:42:45;;;;;;;3.83;1.70;;;11.70;74.10;;;-142.21;100.00;112049.66;5022774;28;20446;-71
2022/11/08 03:45:13;;;;;;;2.07;1.60;;;11.70;73.90;;;-142.21;100.00;112049.66;5011847;28;20524;-70
2022/11/08 03:47:43;;;;;;;2.77;1.70;;;11.60;73.70;;;-142.21;100.00;112049.66;5013117;28;20457;-70
2022/11/08 03:50:13;;;;;;;1.90;1.70;;;11.60;73.90;;;-142.21;100.00;112049.66;5012673;28;20458;-71
2022/11/08 03:52:41;;;;;;;2.10;1.90;;;11.60;73.90;;;-142.21;100.00;112049.66;5012877;28;20752;-70
2022/11/08 03:55:10;;;;;;;4.93;2.03;;;11.60;74.00;;;-142.21;100.00;112049.66;5011972;28;20446;-70
2022/11/08 03:57:37;;;;;;;3.13;2.10;;;11.50;74.00;;;-142.21;100.00;112049.66;5012968;28;20485;-70
2022/11/08 04:00:08;;;;;;;2.23;1.70;;;11.50;74.40;;;-142.21;100.00;112049.66;4978037;28;20554;-71
2022/11/08 04:02:35;;;;;;;4.13;2.17;;;11.50;75.10;;;-142.21;100.00;112049.66;5018536;28;20437;-71
2022/11/08 04:05:02;;;;;;;3.00;2.20;;;11.50;75.00;;;-142.21;100.00;112049.66;5043772;28;20481;-71
2022/11/08 04:07:31;;;;;;;1.80;1.70;;;11.50;74.70;;;-142.21;100.00;112049.66;5026042;28;20456;-71
2022/11/08 04:09:58;;;;;;;2.37;1.80;;;11.50;74.50;;;-142.21;100.00;112049.66;5032130;28;20480;-72
2022/11/08 04:15:15;;;;;;;3.63;1.60;;;11.40;74.50;;;-142.21;100.00;112049.66;5032702;28;20495;-71
2022/11/08 04:23:16;;;;;;;5.73;1.87;;;11.40;75.40;;;-142.21;100.00;112049.66;5032975;28;20827;-71
2022/11/08 04:25:44;;;;;;;2.87;2.23;;;11.30;75.80;;;-142.21;100.00;112049.66;5033195;28;20480;-71
2022/11/08 04:28:11;;;;;;;4.97;2.40;;;11.40;75.90;;;-142.21;100.00;112049.66;5019068;28;20445;-70
2022/11/08 04:30:38;;;;;;;5.37;1.90;;;11.40;76.40;;;-142.21;100.00;112049.66;5033169;28;20439;-71
2022/11/08 04:33:06;;;;;;;3.23;2.07;;;11.40;76.30;;;-142.21;100.00;112049.66;5033060;28;20448;-71
2022/11/08 04:35:33;;;;;;;2.93;1.90;;;11.40;75.90;;;-142.21;100.00;112049.66;5033363;28;20558;-70
2022/11/08 04:38:01;;;;;;;4.53;2.10;;;11.40;75.50;;;-142.21;100.00;112049.66;5032931;28;20448;-70
2022/11/08 04:40:31;;;;;;;3.97;1.93;;;11.40;75.20;;;-142.21;100.00;112049.66;5033219;28;20944;-70
2022/11/08 04:42:58;;;;;;;5.73;2.30;;;11.50;75.10;;;-142.21;100.00;112049.66;5033634;28;20437;-71
2022/11/08 04:45:25;;;;;;;4.60;2.00;;;11.40;74.80;;;-142.21;100.00;112049.66;5032430;28;20477;-71
2022/11/08 04:47:52;;;;;;;4.67;2.10;;;11.40;74.80;;;-142.21;100.00;112049.66;5031857;28;20465;-70
2022/11/08 04:50:19;;;;;;;3.47;2.53;;;11.40;75.30;;;-142.21;100.00;112049.66;5031307;28;20456;-72
2022/11/08 04:52:52;;;;;;;2.93;2.30;;;11.50;75.30;;;-142.21;100.00;112049.66;5031879;28;20445;-71
2022/11/08 04:55:19;;;;;;;2.70;2.00;;;11.40;74.80;;;-142.21;100.00;112049.66;5033169;28;20425;-71
2022/11/08 04:57:49;;;;;;;2.47;2.00;;;11.40;74.60;;;-142.21;100.00;112049.66;5036136;28;20452;-71
2022/11/08 05:00:17;;;;;;;4.03;1.93;;;11.30;74.50;;;-142.21;100.00;112049.66;5035423;28;20533;-70
2022/11/08 05:02:44;;;;;;;3.63;1.97;;;11.30;74.60;;;-142.21;100.00;112049.66;5036085;28;20437;-71
2022/11/08 05:05:14;;;;;;;2.47;1.90;;;11.30;74.60;;;-142.21;100.00;112049.66;5035354;28;20489;-71
2022/11/08 05:07:41;;;;;;;5.00;2.10;;;11.30;75.20;;;-142.21;100.00;112049.66;5021166;28;20446;-71
2022/11/08 05:10:09;;;;;;;4.47;1.90;;;11.30;74.20;;;-142.21;100.00;112049.66;5016073;28;20477;-71
2022/11/08 05:12:36;;;;;;;2.20;2.00;;;11.20;74.20;;;-142.21;100.00;112049.66;5016570;28;20525;-71
2022/11/08 05:15:06;;;;;;;3.87;2.30;;;11.20;74.20;;;-142.21;100.00;112049.66;5016467;28;20442;-71
2022/11/08 05:17:34;;;;;;;2.50;2.30;;;11.20;74.30;;;-142.21;100.00;112049.66;5028213;28;20429;-72
2022/11/08 05:25:29;;;;;;;3.73;2.50;;;11.10;74.40;;;-142.21;100.00;112049.66;5034937;28;20544;-71
2022/11/08 05:27:57;;;;;;;3.87;2.30;;;11.10;74.40;;;-142.21;100.00;112049.66;5020726;28;20961;-71
2022/11/08 05:30:25;;;;;;;3.10;1.87;;;11.00;74.50;;;-142.21;100.00;112049.66;5015357;28;20537;-70
2022/11/08 05:32:52;;;;;;;4.50;2.30;;;11.00;74.50;;;-142.21;100.00;112049.66;5015752;28;20777;-71
2022/11/08 05:35:21;;;;;;;2.20;1.87;;;11.00;74.60;;;-142.21;100.00;112049.66;5014436;28;20448;-71
2022/11/08 05:37:49;;;;;;;2.27;1.90;;;10.90;74.90;;;-142.21;100.00;112049.66;5015430;28;20457;-70
2022/11/08 05:40:16;;;;;;;2.20;1.80;;;10.90;75.30;;;-142.21;100.00;112049.66;5015102;28;20847;-70
2022/11/08 05:42:43;;;;;;;3.13;2.10;;;10.90;75.10;;;-142.21;100.00;112049.66;5015595;28;20460;-70
2022/11/08 05:45:10;;;;;;;1.57;1.47;;;10.90;75.00;;;-142.21;100.00;112049.66;5014941;28;20576;-70
2022/11/08 05:47:43;;;;;;;2.37;1.90;;;10.90;74.60;;;-142.21;100.00;112049.66;5015007;28;20446;-71
2022/11/08 05:50:10;;;;;;;3.20;2.00;;;10.90;74.50;;;-142.21;100.00;112049.66;5014685;28;20453;-71
2022/11/08 05:52:37;;;;;;;1.93;1.77;;;10.90;74.30;;;-142.21;100.00;112049.66;5015471;28;20464;-70
2022/11/08 05:55:05;;;;;;;2.10;1.90;;;10.90;74.10;;;-142.21;100.00;112049.66;5015036;28;20450;-70
2022/11/08 05:57:33;;;;;;;2.13;1.70;;;10.90;74.10;;;-142.21;100.00;112049.66;5029464;28;20526;-70
2022/11/08 06:00:00;;;;;;;2.20;1.80;;;10.90;74.00;;;-142.21;100.00;112049.66;5030727;28;20451;-70
2022/11/08 06:02:28;;;;;;;2.60;1.83;;;10.90;74.10;;;-142.21;100.00;112049.66;5033267;28;20447;-71
2022/11/08 06:04:56;;;;;;;2.10;1.90;;;10.90;74.20;;;-142.21;100.00;112049.66;5032451;28;20449;-70
2022/11/08 06:07:23;;;;;;;3.17;2.17;;;10.90;74.20;;;-142.21;100.00;112049.66;5015861;28;20478;-70
2022/11/08 06:09:50;;;;;;;2.67;1.90;;;10.80;74.10;;;-142.21;100.00;112049.66;5034306;28;20461;-71
2022/11/08 06:12:17;;;;;;;2.10;1.90;;;10.80;74.10;;;-142.21;100.00;112049.66;5034098;28;20430;-71
2022/11/08 06:14:45;;;;;;;2.37;2.17;;;10.80;74.30;;;-142.21;100.00;112049.66;5034219;28;20473;-70
2022/11/08 06:17:12;;;;;;;3.50;2.07;;;10.80;74.60;;;-142.21;100.00;112049.66;5032222;28;20445;-70
2022/11/08 06:19:39;;;;;;;2.50;2.03;;;10.80;74.60;;;-142.21;100.00;112049.66;5034894;28;20855;-71
2022/11/08 06:22:07;;;;;;;2.47;2.00;;;10.80;74.80;;;-142.21;100.00;112049.66;5034465;28;20544;-71
2022/11/08 06:24:34;;;;;;;2.33;2.13;;;10.80;74.80;;;-142.21;100.00;112049.66;5034386;28;20540;-69
2022/11/08 06:27:01;;;;;;;4.40;2.40;;;10.80;74.60;;;-142.21;100.00;112049.66;5022676;28;20478;-70
2022/11/08 06:29:28;;;;;;;3.37;2.20;;;10.80;74.60;;;-142.21;100.00;112049.66;5013971;28;20917;-70
2022/11/08 06:31:57;;;;;;;4.33;2.30;;;10.80;74.60;;;-142.21;100.00;112049.66;5013707;28;20442;-71
2022/11/08 06:34:24;;;;;;;5.73;2.30;;;10.80;74.50;;;-142.21;100.00;112049.66;5017073;28;20533;-70
2022/11/08 06:36:53;;;;;;;2.27;2.07;;;10.80;74.60;;;-142.21;100.00;112049.66;5034071;28;20441;-70
2022/11/08 06:39:22;;;;;;;2.73;2.47;;;10.80;74.70;;;-142.21;100.00;112049.66;5033699;28;20437;-70
2022/11/08 06:41:49;;;;;;;2.67;2.43;;;10.80;74.50;;;-142.21;100.00;112049.66;5033895;28;20445;-70
2022/11/08 06:44:16;;;;;;;3.23;2.67;;;10.80;74.70;;;-142.21;100.00;112049.66;5033035;28;20445;-71
2022/11/08 06:46:44;;;;;;;4.07;2.60;;;10.80;75.50;;;-142.21;100.00;112049.66;5033490;28;20480;-71
2022/11/08 06:49:11;;;;;;;4.90;2.73;;;10.80;74.70;;;-142.21;100.00;112049.66;5033471;28;20599;-70
2022/11/08 06:51:38;;;;;;;4.00;2.50;;;10.80;74.60;;;-142.21;100.00;112049.66;5033969;28;20455;-71
2022/11/08 06:54:06;;;;;;;2.50;2.30;;;10.80;74.80;;;-142.21;100.00;112049.66;5033527;28;20456;-71
2022/11/08 06:56:35;;;;;;;6.47;2.37;;;10.80;75.10;;;-142.21;100.00;112049.66;5028744;28;20446;-71
2022/11/08 06:59:02;;;;;;;2.43;2.20;;;10.80;75.10;;;-142.21;100.00;112049.66;5033870;28;20441;-70
2022/11/08 07:01:29;;;;;;;2.73;2.47;;;10.80;75.40;;;-142.21;100.00;112049.66;5032683;28;20451;-71
2022/11/08 07:03:56;;;;;;;6.03;2.57;;;10.90;75.50;;;-142.21;100.00;112049.66;5033836;28;20463;-70
2022/11/08 07:06:23;;;;;;;3.80;2.60;;;10.90;75.50;;;-142.21;100.00;112049.66;5032684;28;20491;-71
2022/11/08 07:08:50;;;;;;;5.13;3.87;;;10.90;75.60;;;-142.21;100.00;112049.66;5033723;28;20477;-70
2022/11/08 07:11:21;;;;;;;4.13;3.60;;;10.90;75.70;;;-142.21;100.00;112049.66;5032662;28;20487;-70
2022/11/08 07:13:49;;;;;;;3.07;2.77;;;11.00;76.00;;;-142.21;100.00;112049.66;5033571;28;20437;-70
2022/11/08 07:16:16;;;;;;;4.60;2.90;;;11.00;76.00;;;-142.21;100.00;112049.66;5028057;28;20441;-70
2022/11/08 07:18:43;;;;;;;5.77;3.13;;;11.00;76.10;;;-142.21;100.00;112049.66;5013949;28;20442;-70
2022/11/08 07:21:11;;;;;;;3.83;2.87;;;11.10;76.30;;;-142.21;100.00;112049.66;5013244;28;21111;-70
2022/11/08 07:23:38;;;;;;;7.27;3.47;;;11.10;76.10;;;-142.21;100.00;112049.66;5013340;28;21013;-70
2022/11/08 07:26:07;;;;;;;3.90;2.60;;;11.10;76.20;;;-142.21;100.00;112049.66;4999538;28;20485;-70
2022/11/08 07:28:35;;;;;;;3.60;2.80;;;11.20;76.50;;;-142.21;100.00;112049.66;5031029;28;20441;-70
2022/11/08 07:31:05;;;;;;;3.93;2.70;;;11.20;76.50;;;-142.21;100.00;112049.66;5032156;28;20449;-69
2022/11/08 07:33:33;;;;;;;3.93;2.97;;;11.30;76.50;;;-142.21;100.00;112049.66;5032423;28;20477;-69
2022/11/08 07:36:01;;;;;;;4.70;3.03;;;11.30;76.40;;;-142.21;100.00;112049.66;5019514;28;20442;-68
2022/11/08 07:38:28;;;;;;;4.00;2.80;;;11.40;76.50;;;-142.21;100.00;112049.66;5012607;28;20450;-69
2022/11/08 07:40:59;;;;;;;4.20;2.90;;;11.50;76.70;;;-142.21;100.00;112049.66;5015827;28;20454;-69
2022/11/08 07:43:27;;;;;;;3.37;3.00;;;11.50;76.70;;;-142.21;100.00;112049.66;5021614;28;20529;-69
2022/11/08 07:45:56;;;;;;;4.10;2.50;;;11.60;76.90;;;-142.21;100.00;112049.66;5012996;28;20870;-69
2022/11/08 07:48:27;;;;;;;5.13;3.33;;;11.70;76.90;;;-142.21;100.00;112049.66;5017643;28;20465;-70
2022/11/08 07:50:55;;;;;;;8.13;5.00;;;11.80;77.30;;;-142.21;100.00;112049.66;5031961;28;20528;-69
2022/11/08 07:53:23;;;;;;;5.33;4.20;;;11.90;77.50;;;-142.21;100.00;112049.66;5013001;28;20942;-70
2022/11/08 07:55:51;;;;;;;10.83;6.80;;;11.90;77.20;;;-142.21;100.00;112049.66;5027013;28;20440;-69
2022/11/08 07:58:18;;;;;;;16.87;12.53;;;11.90;77.10;;;-142.21;100.00;112049.66;5012223;28;20446;-69
2022/11/08 08:00:48;;;;;;;11.53;7.50;;;11.90;76.90;;;-142.21;100.00;112049.66;5012725;28;20484;-69
2022/11/08 08:03:16;;;;;;;6.20;5.00;;;11.90;77.00;;;-142.21;100.00;112049.66;5012180;28;20879;-69
2022/11/08 08:05:51;;;;;;;6.30;3.97;;;11.90;77.30;;;-142.21;100.00;112049.66;5012547;28;20534;-69
2022/11/08 08:08:22;;;;;;;5.00;3.77;;;11.90;77.60;;;-142.21;100.00;112049.66;5012338;28;20428;-69
2022/11/08 08:10:49;;;;;;;4.83;3.37;;;11.90;77.30;;;-142.21;100.00;112049.66;5012675;28;20576;-69
2022/11/08 08:13:16;;;;;;;3.37;2.80;;;12.00;77.50;;;-142.21;100.00;112049.66;5011480;28;20442;-69
2022/11/08 08:15:43;;;;;;;4.83;3.10;;;12.10;77.60;;;-142.21;100.00;112049.66;5012689;28;20453;-69
2022/11/08 08:18:11;;;;;;;3.57;2.80;;;12.10;77.60;;;-142.21;100.00;112049.66;5025863;28;20591;-69
2022/11/08 08:20:39;;;;;;;9.50;7.33;;;12.20;77.60;;;-142.21;100.00;112049.66;5031537;28;21167;-69
2022/11/08 08:23:07;;;;;;;7.77;5.93;;;12.20;77.60;;;-142.21;100.00;112049.66;5032441;28;20767;-69
2022/11/08 08:25:35;;;;;;;5.10;3.83;;;12.30;77.60;;;-142.21;100.00;112049.66;5031445;28;20552;-69
2022/11/08 08:28:02;;;;;;;5.83;3.70;;;12.30;77.70;;;-142.21;100.00;112049.66;5012015;28;20480;-69
2022/11/08 08:30:31;;;;;;;5.83;3.27;;;12.40;77.70;;;-142.21;100.00;112049.66;5011757;28;20576;-69
2022/11/08 08:33:05;;;;;;;10.57;6.50;;;12.50;77.60;;;-142.21;100.00;112049.66;5012449;28;20448;-69
2022/11/08 08:35:34;;;;;;;7.47;5.23;;;12.40;77.60;;;-142.21;100.00;112049.66;5012031;28;20534;-69
2022/11/08 08:38:02;;;;;;;6.37;5.37;;;12.40;77.70;;;-142.21;100.00;112049.66;5012413;28;20465;-69
2022/11/08 08:40:32;;;;;;;10.07;6.47;;;12.40;77.80;;;-142.21;100.00;112049.66;5012049;28;20533;-69
2022/11/08 08:42:59;;;;;;;5.47;4.83;;;12.50;77.80;;;-142.21;100.00;112049.66;5012080;28;20533;-69
2022/11/08 08:45:27;;;;;;;4.60;3.80;;;12.60;77.70;;;-142.21;100.00;112049.66;5012031;28;20529;-69
2022/11/08 08:47:56;;;;;;;5.03;3.57;;;12.70;77.70;;;-142.21;100.00;112049.66;5012661;28;20902;-69
2022/11/08 08:50:25;;;;;;;3.83;3.47;;;12.80;77.50;;;-142.21;100.00;112049.66;5011483;28;20986;-69
2022/11/08 08:52:57;;;;;;;4.70;3.80;;;12.90;77.30;;;-142.21;100.00;112049.66;5012479;28;20446;-69
2022/11/08 08:55:24;;;;;;;6.03;3.67;;;13.00;77.30;;;-142.21;100.00;112049.66;5011821;28;20432;-69
2022/11/08 08:57:55;;;;;;;5.00;3.60;;;13.10;77.90;;;-142.21;100.00;112049.66;5011566;28;20520;-69
2022/11/08 09:00:24;;;;;;;5.30;3.63;;;13.20;77.10;;;-142.21;100.00;112049.66;5012007;28;20815;-69
2022/11/08 09:02:51;;;;;;;5.27;3.70;;;13.30;76.90;;;-142.21;100.00;112049.66;5012429;28;20803;-69
2022/11/08 09:05:18;;;;;;;5.87;3.60;;;13.50;77.00;;;-142.21;100.00;112049.66;5011907;28;20541;-69
2022/11/08 09:07:45;;;;;;;6.00;4.20;;;13.60;76.60;;;-142.21;100.00;112049.66;5012041;28;20549;-69
2022/11/08 09:10:13;;;;;;;5.13;4.17;;;13.70;76.40;;;-142.21;100.00;112049.66;5011793;28;20578;-69
2022/11/08 09:12:40;;;;;;;7.87;4.87;;;13.90;76.40;;;-142.21;100.00;112049.66;5011163;28;20537;-69
2022/11/08 09:15:10;;;;;;;7.13;4.80;;;14.20;76.40;;;-142.21;100.00;112049.66;5012408;28;20528;-69
2022/11/08 09:17:37;;;;;;;6.23;4.97;;;14.50;75.70;;;-142.21;100.00;112049.66;5020319;28;21316;-69
2022/11/08 09:20:05;;;;;;;8.47;5.33;;;14.80;74.80;;;-142.21;100.00;112049.66;5031899;28;20452;-69
2022/11/08 09:22:33;;;;;;;8.07;5.10;;;15.20;74.80;;;-142.21;100.00;112049.66;5031410;28;20445;-69
2022/11/08 09:25:01;;;;;;;6.33;4.47;;;15.50;74.80;;;-142.21;100.00;112049.66;5031749;28;20445;-69
2022/11/08 09:27:30;;;;;;;5.03;3.50;;;15.60;73.30;;;-142.21;98.21;112049.66;5015862;28;20486;-69
2022/11/08 09:29:58;;;;;;;5.70;3.47;;;15.70;72.10;;;-142.21;97.72;112049.66;5011850;28;20985;-69
2022/11/08 09:32:27;;;;;;;5.07;3.73;;;15.70;71.70;;;-142.21;97.30;112049.66;5011150;28;20918;-68
2022/11/08 09:34:55;;;;;;;4.93;3.27;;;15.80;71.60;;;-142.21;97.38;112049.66;5011915;28;20931;-69
2022/11/08 09:37:23;;;;;;;5.43;3.30;;;15.70;71.50;;;-142.21;97.57;112049.66;5011499;28;20827;-69
2022/11/08 09:39:51;;;;;;;4.87;3.20;;;15.90;71.80;;;-142.21;96.80;112049.66;5009159;28;20453;-69
2022/11/08 09:42:50;;;;;;;4.23;2.70;;;16.10;71.20;;;-142.21;95.82;112049.66;5012874;28;20956;-68
2022/11/08 09:45:27;;;;;;;2.23;1.90;;;16.40;71.00;;;-142.21;84.18;112049.66;5015181;28;20450;-68
2022/11/08 09:48:00;;;;;;;2.40;2.00;;;16.60;66.70;;;-142.21;82.07;112049.66;5015398;28;20485;-69
2022/11/08 09:50:38;;;;;;;3.03;2.00;;;16.70;65.10;;;-142.21;80.05;112049.66;5014679;28;20476;-69
2022/11/08 09:53:17;;;;;;;2.30;2.03;;;16.80;64.50;;;-142.21;78.17;112049.66;5015495;28;20791;-69
2022/11/08 09:55:51;;;;;;;5.50;2.30;;;16.90;63.00;;;-142.21;77.31;112049.66;5014848;28;20453;-69
2022/11/08 09:58:29;;;;;;;2.50;2.30;;;17.00;63.10;;;-142.21;77.75;112049.66;5015488;28;20433;-69
2022/11/08 10:00:56;;;;;;;3.20;2.23;;;17.10;63.60;;;-142.21;78.65;112049.66;5015073;28;20525;-68
2022/11/08 10:03:26;;;;;;;4.03;2.13;;;17.40;63.30;;;-142.21;75.15;112049.66;5014371;28;20481;-69
2022/11/08 10:06:24;;;;;;;4.23;2.07;;;17.50;62.10;;;-142.21;74.63;112049.66;5015165;28;20525;-69
2022/11/08 10:09:05;;;;;;;2.23;1.90;;;17.80;61.30;;;-142.21;71.79;112049.66;5011380;28;20540;-69
2022/11/08 10:11:53;;;;;;;2.60;2.30;;;18.10;60.70;;;-142.21;71.33;112049.66;4966257;28;21078;-68
2022/11/08 10:14:40;;;;;;;3.50;2.07;;;18.10;59.90;;;-142.21;69.67;112049.66;5014382;28;20462;-69
2022/11/08 10:17:51;;;;;;;2.20;2.00;;;18.20;59.20;;;-142.21;72.99;112049.66;5019861;28;20512;-68
2022/11/08 10:20:35;;;;;;;3.23;2.13;;;18.40;60.30;;;-142.21;69.37;112049.66;5021484;28;20467;-69
2022/11/08 10:23:20;;;;;;;4.13;2.23;;;18.60;59.20;;;-142.21;67.68;112049.66;5034421;28;20479;-69
2022/11/08 10:25:54;;;;;;;2.80;2.03;;;18.60;58.30;;;-142.21;66.91;112049.66;5032833;28;20425;-68
2022/11/08 10:28:28;;;;;;;1.90;1.70;;;18.80;58.40;;;-142.21;65.65;112049.66;5014543;28;20509;-68